sensor_id;sensor_type;location;lat;lon;timestamp;P1;durP1;ratioP1;P2;durP2;ratioP2
75362;SDS011;64122;51.988;5.892;2023-04-24T00:01:33;6.20;;;2.97;;
75362;SDS011;64122;51.988;5.892;2023-04-24T00:04:02;6.32;;;3.25;;
75362;SDS011;64122;51.988;5.892;2023-04-24T00:06:32;7.60;;;3.38;;
75362;SDS011;64122;51.988;5.892;2023-04-24T00:09:02;6.55;;;3.60;;
75362;SDS011;64122;51.988;5.892;2023-04-24T00:11:32;6.57;;;3.83;;
75362;SDS011;64122;51.988;5.892;2023-04-24T00:14:01;7.00;;;3.58;;
75362;SDS011;64122;51.988;5.892;2023-04-24T00:16:33;7.03;;;3.33;;
75362;SDS011;64122;51.988;5.892;2023-04-24T00:19:02;6.07;;;3.38;;
75362;SDS011;64122;51.988;5.892;2023-04-24T00:21:32;7.22;;;4.28;;
75362;SDS011;64122;51.988;5.892;2023-04-24T00:24:01;6.97;;;3.75;;
75362;SDS011;64122;51.988;5.892;2023-04-24T00:26:30;6.78;;;2.45;;
75362;SDS011;64122;51.988;5.892;2023-04-24T00:28:59;4.88;;;2.30;;
75362;SDS011;64122;51.988;5.892;2023-04-24T00:31:29;5.40;;;2.67;;
75362;SDS011;64122;51.988;5.892;2023-04-24T00:34:03;5.15;;;1.83;;
75362;SDS011;64122;51.988;5.892;2023-04-24T00:36:33;3.88;;;1.33;;
75362;SDS011;64122;51.988;5.892;2023-04-24T00:39:02;4.28;;;1.80;;
75362;SDS011;64122;51.988;5.892;2023-04-24T00:41:34;3.85;;;1.75;;
75362;SDS011;64122;51.988;5.892;2023-04-24T00:44:04;4.85;;;1.70;;
75362;SDS011;64122;51.988;5.892;2023-04-24T00:46:33;4.53;;;1.58;;
75362;SDS011;64122;51.988;5.892;2023-04-24T00:49:05;3.95;;;1.70;;
75362;SDS011;64122;51.988;5.892;2023-04-24T00:51:34;3.60;;;1.40;;
75362;SDS011;64122;51.988;5.892;2023-04-24T00:54:03;3.88;;;1.92;;
75362;SDS011;64122;51.988;5.892;2023-04-24T00:56:32;3.95;;;1.85;;
75362;SDS011;64122;51.988;5.892;2023-04-24T00:59:03;4.15;;;2.00;;
75362;SDS011;64122;51.988;5.892;2023-04-24T01:01:33;4.22;;;1.92;;
75362;SDS011;64122;51.988;5.892;2023-04-24T01:04:05;8.45;;;3.00;;
75362;SDS011;64122;51.988;5.892;2023-04-24T01:09:05;5.07;;;2.80;;
75362;SDS011;64122;51.988;5.892;2023-04-24T01:11:36;5.45;;;2.72;;
75362;SDS011;64122;51.988;5.892;2023-04-24T01:14:06;7.60;;;3.20;;
75362;SDS011;64122;51.988;5.892;2023-04-24T01:16:35;8.45;;;4.13;;
75362;SDS011;64122;51.988;5.892;2023-04-24T01:19:08;8.38;;;5.28;;
75362;SDS011;64122;51.988;5.892;2023-04-24T01:21:39;11.98;;;6.13;;
75362;SDS011;64122;51.988;5.892;2023-04-24T01:24:12;10.25;;;6.20;;
75362;SDS011;64122;51.988;5.892;2023-04-24T01:26:42;10.55;;;6.72;;
75362;SDS011;64122;51.988;5.892;2023-04-24T01:29:11;12.63;;;7.18;;
75362;SDS011;64122;51.988;5.892;2023-04-24T01:31:42;13.50;;;8.15;;
75362;SDS011;64122;51.988;5.892;2023-04-24T01:34:12;15.82;;;7.72;;
75362;SDS011;64122;51.988;5.892;2023-04-24T01:36:42;12.77;;;7.55;;
75362;SDS011;64122;51.988;5.892;2023-04-24T01:39:16;11.98;;;6.57;;
75362;SDS011;64122;51.988;5.892;2023-04-24T01:41:46;11.48;;;6.50;;
75362;SDS011;64122;51.988;5.892;2023-04-24T01:44:18;11.43;;;5.90;;
75362;SDS011;64122;51.988;5.892;2023-04-24T01:46:47;8.77;;;4.57;;
75362;SDS011;64122;51.988;5.892;2023-04-24T01:49:16;7.30;;;4.03;;
75362;SDS011;64122;51.988;5.892;2023-04-24T01:51:46;6.93;;;3.72;;
75362;SDS011;64122;51.988;5.892;2023-04-24T01:54:18;5.75;;;3.08;;
75362;SDS011;64122;51.988;5.892;2023-04-24T01:56:47;7.85;;;3.85;;
75362;SDS011;64122;51.988;5.892;2023-04-24T01:59:17;6.45;;;3.58;;
75362;SDS011;64122;51.988;5.892;2023-04-24T02:01:46;8.48;;;4.55;;
75362;SDS011;64122;51.988;5.892;2023-04-24T02:04:18;8.15;;;4.55;;
75362;SDS011;64122;51.988;5.892;2023-04-24T02:06:48;9.23;;;5.20;;
75362;SDS011;64122;51.988;5.892;2023-04-24T02:09:19;13.00;;;5.38;;
75362;SDS011;64122;51.988;5.892;2023-04-24T02:11:50;10.43;;;6.43;;
75362;SDS011;64122;51.988;5.892;2023-04-24T02:14:19;11.38;;;6.15;;
75362;SDS011;64122;51.988;5.892;2023-04-24T02:16:48;12.57;;;6.78;;
75362;SDS011;64122;51.988;5.892;2023-04-24T02:19:19;11.70;;;7.45;;
75362;SDS011;64122;51.988;5.892;2023-04-24T02:21:50;13.30;;;8.07;;
75362;SDS011;64122;51.988;5.892;2023-04-24T02:24:22;14.88;;;10.18;;
75362;SDS011;64122;51.988;5.892;2023-04-24T02:26:51;17.42;;;10.15;;
75362;SDS011;64122;51.988;5.892;2023-04-24T02:29:20;15.68;;;9.95;;
75362;SDS011;64122;51.988;5.892;2023-04-24T02:31:50;16.58;;;10.40;;
75362;SDS011;64122;51.988;5.892;2023-04-24T02:34:19;17.90;;;11.23;;
75362;SDS011;64122;51.988;5.892;2023-04-24T02:36:48;18.77;;;12.35;;
75362;SDS011;64122;51.988;5.892;2023-04-24T02:39:22;16.75;;;11.02;;
75362;SDS011;64122;51.988;5.892;2023-04-24T02:41:52;18.02;;;11.18;;
75362;SDS011;64122;51.988;5.892;2023-04-24T02:44:21;20.35;;;11.32;;
75362;SDS011;64122;51.988;5.892;2023-04-24T02:46:50;17.50;;;11.25;;
75362;SDS011;64122;51.988;5.892;2023-04-24T02:49:19;18.40;;;10.98;;
75362;SDS011;64122;51.988;5.892;2023-04-24T02:51:49;17.42;;;9.32;;
75362;SDS011;64122;51.988;5.892;2023-04-24T02:54:18;18.05;;;11.85;;
75362;SDS011;64122;51.988;5.892;2023-04-24T02:56:50;16.10;;;10.18;;
75362;SDS011;64122;51.988;5.892;2023-04-24T02:59:19;18.75;;;11.38;;
75362;SDS011;64122;51.988;5.892;2023-04-24T03:01:48;18.52;;;10.27;;
75362;SDS011;64122;51.988;5.892;2023-04-24T03:04:17;16.33;;;10.20;;
75362;SDS011;64122;51.988;5.892;2023-04-24T03:06:48;17.63;;;10.38;;
75362;SDS011;64122;51.988;5.892;2023-04-24T03:09:19;19.60;;;10.27;;
75362;SDS011;64122;51.988;5.892;2023-04-24T03:11:51;16.48;;;10.05;;
75362;SDS011;64122;51.988;5.892;2023-04-24T03:14:21;16.80;;;9.93;;
75362;SDS011;64122;51.988;5.892;2023-04-24T03:16:50;16.40;;;10.48;;
75362;SDS011;64122;51.988;5.892;2023-04-24T03:19:19;17.17;;;9.98;;
75362;SDS011;64122;51.988;5.892;2023-04-24T03:21:58;17.15;;;10.43;;
75362;SDS011;64122;51.988;5.892;2023-04-24T03:24:28;15.32;;;9.50;;
75362;SDS011;64122;51.988;5.892;2023-04-24T03:27:00;16.30;;;9.00;;
75362;SDS011;64122;51.988;5.892;2023-04-24T03:30:05;16.70;;;9.88;;
75362;SDS011;64122;51.988;5.892;2023-04-24T03:32:47;18.77;;;9.93;;
75362;SDS011;64122;51.988;5.892;2023-04-24T03:35:22;16.25;;;10.18;;
75362;SDS011;64122;51.988;5.892;2023-04-24T03:37:52;17.38;;;10.75;;
75362;SDS011;64122;51.988;5.892;2023-04-24T03:40:59;17.00;;;10.88;;
75362;SDS011;64122;51.988;5.892;2023-04-24T03:43:45;17.63;;;9.70;;
75362;SDS011;64122;51.988;5.892;2023-04-24T03:46:15;19.55;;;12.18;;
75362;SDS011;64122;51.988;5.892;2023-04-24T03:48:51;22.35;;;12.43;;
75362;SDS011;64122;51.988;5.892;2023-04-24T03:51:25;21.40;;;12.50;;
75362;SDS011;64122;51.988;5.892;2023-04-24T03:54:05;25.77;;;13.90;;
75362;SDS011;64122;51.988;5.892;2023-04-24T03:56:38;23.55;;;14.10;;
75362;SDS011;64122;51.988;5.892;2023-04-24T03:59:10;23.48;;;14.38;;
75362;SDS011;64122;51.988;5.892;2023-04-24T04:01:42;25.45;;;15.10;;
75362;SDS011;64122;51.988;5.892;2023-04-24T04:04:14;26.00;;;14.60;;
75362;SDS011;64122;51.988;5.892;2023-04-24T04:06:44;23.35;;;15.77;;
75362;SDS011;64122;51.988;5.892;2023-04-24T04:09:14;27.08;;;17.10;;
75362;SDS011;64122;51.988;5.892;2023-04-24T04:11:45;26.85;;;17.23;;
75362;SDS011;64122;51.988;5.892;2023-04-24T04:14:17;25.42;;;15.93;;
75362;SDS011;64122;51.988;5.892;2023-04-24T04:16:47;24.88;;;16.33;;
75362;SDS011;64122;51.988;5.892;2023-04-24T04:19:17;26.00;;;16.02;;
75362;SDS011;64122;51.988;5.892;2023-04-24T04:21:46;27.00;;;15.48;;
75362;SDS011;64122;51.988;5.892;2023-04-24T04:24:44;24.75;;;15.38;;
75362;SDS011;64122;51.988;5.892;2023-04-24T04:27:14;24.65;;;16.50;;
75362;SDS011;64122;51.988;5.892;2023-04-24T04:29:52;22.60;;;13.55;;
75362;SDS011;64122;51.988;5.892;2023-04-24T04:32:22;24.63;;;15.25;;
75362;SDS011;64122;51.988;5.892;2023-04-24T04:34:52;24.05;;;14.68;;
75362;SDS011;64122;51.988;5.892;2023-04-24T04:37:24;25.20;;;15.90;;
75362;SDS011;64122;51.988;5.892;2023-04-24T04:40:14;23.10;;;14.45;;
75362;SDS011;64122;51.988;5.892;2023-04-24T04:42:58;24.52;;;14.40;;
75362;SDS011;64122;51.988;5.892;2023-04-24T04:45:34;21.63;;;13.25;;
75362;SDS011;64122;51.988;5.892;2023-04-24T04:48:27;22.60;;;14.30;;
75362;SDS011;64122;51.988;5.892;2023-04-24T04:50:59;23.10;;;14.63;;
75362;SDS011;64122;51.988;5.892;2023-04-24T04:53:29;24.30;;;13.82;;
75362;SDS011;64122;51.988;5.892;2023-04-24T04:55:58;19.77;;;12.52;;
75362;SDS011;64122;51.988;5.892;2023-04-24T04:58:40;20.65;;;12.68;;
75362;SDS011;64122;51.988;5.892;2023-04-24T05:01:15;22.30;;;13.27;;
75362;SDS011;64122;51.988;5.892;2023-04-24T05:03:46;23.20;;;13.18;;
75362;SDS011;64122;51.988;5.892;2023-04-24T05:06:17;23.98;;;12.73;;
75362;SDS011;64122;51.988;5.892;2023-04-24T05:08:46;21.25;;;12.48;;
75362;SDS011;64122;51.988;5.892;2023-04-24T05:11:29;19.40;;;12.48;;
75362;SDS011;64122;51.988;5.892;2023-04-24T05:14:00;23.40;;;12.65;;
75362;SDS011;64122;51.988;5.892;2023-04-24T05:16:40;19.80;;;11.68;;
75362;SDS011;64122;51.988;5.892;2023-04-24T05:19:10;18.77;;;11.77;;
75362;SDS011;64122;51.988;5.892;2023-04-24T05:21:41;16.40;;;11.02;;
75362;SDS011;64122;51.988;5.892;2023-04-24T05:24:10;18.20;;;11.15;;
75362;SDS011;64122;51.988;5.892;2023-04-24T05:26:59;16.83;;;11.15;;
75362;SDS011;64122;51.988;5.892;2023-04-24T05:29:35;17.77;;;11.45;;
75362;SDS011;64122;51.988;5.892;2023-04-24T05:32:08;17.13;;;10.98;;
75362;SDS011;64122;51.988;5.892;2023-04-24T05:34:37;18.45;;;10.18;;
75362;SDS011;64122;51.988;5.892;2023-04-24T05:37:06;16.40;;;10.15;;
75362;SDS011;64122;51.988;5.892;2023-04-24T05:39:35;17.73;;;10.85;;
75362;SDS011;64122;51.988;5.892;2023-04-24T05:42:06;19.30;;;10.45;;
75362;SDS011;64122;51.988;5.892;2023-04-24T05:44:35;15.65;;;10.00;;
75362;SDS011;64122;51.988;5.892;2023-04-24T05:47:07;15.40;;;10.02;;
75362;SDS011;64122;51.988;5.892;2023-04-24T05:49:37;15.90;;;10.18;;
75362;SDS011;64122;51.988;5.892;2023-04-24T05:52:07;15.05;;;9.80;;
75362;SDS011;64122;51.988;5.892;2023-04-24T05:54:38;15.50;;;9.68;;
75362;SDS011;64122;51.988;5.892;2023-04-24T05:57:08;14.10;;;9.50;;
75362;SDS011;64122;51.988;5.892;2023-04-24T05:59:49;13.77;;;8.65;;
75362;SDS011;64122;51.988;5.892;2023-04-24T06:02:23;13.82;;;8.65;;
75362;SDS011;64122;51.988;5.892;2023-04-24T06:04:53;16.38;;;8.70;;
75362;SDS011;64122;51.988;5.892;2023-04-24T06:07:24;14.07;;;8.85;;
75362;SDS011;64122;51.988;5.892;2023-04-24T06:09:54;16.50;;;9.55;;
75362;SDS011;64122;51.988;5.892;2023-04-24T06:12:23;15.38;;;8.65;;
75362;SDS011;64122;51.988;5.892;2023-04-24T06:14:58;14.60;;;8.40;;
75362;SDS011;64122;51.988;5.892;2023-04-24T06:17:50;10.05;;;6.57;;
75362;SDS011;64122;51.988;5.892;2023-04-24T06:20:20;13.77;;;7.63;;
75362;SDS011;64122;51.988;5.892;2023-04-24T06:22:50;10.75;;;6.72;;
75362;SDS011;64122;51.988;5.892;2023-04-24T06:25:19;13.05;;;6.13;;
75362;SDS011;64122;51.988;5.892;2023-04-24T06:27:50;8.60;;;5.25;;
75362;SDS011;64122;51.988;5.892;2023-04-24T06:30:19;9.85;;;5.55;;
75362;SDS011;64122;51.988;5.892;2023-04-24T06:32:51;10.57;;;5.30;;
75362;SDS011;64122;51.988;5.892;2023-04-24T06:35:21;12.55;;;6.50;;
75362;SDS011;64122;51.988;5.892;2023-04-24T06:37:50;10.45;;;6.18;;
75362;SDS011;64122;51.988;5.892;2023-04-24T06:40:21;9.80;;;5.72;;
75362;SDS011;64122;51.988;5.892;2023-04-24T06:42:51;10.93;;;5.38;;
75362;SDS011;64122;51.988;5.892;2023-04-24T06:45:21;8.90;;;5.40;;
75362;SDS011;64122;51.988;5.892;2023-04-24T06:47:52;9.20;;;4.80;;
75362;SDS011;64122;51.988;5.892;2023-04-24T06:50:22;10.07;;;5.70;;
75362;SDS011;64122;51.988;5.892;2023-04-24T06:52:51;10.77;;;5.18;;
75362;SDS011;64122;51.988;5.892;2023-04-24T06:55:20;10.52;;;4.68;;
75362;SDS011;64122;51.988;5.892;2023-04-24T06:57:49;8.55;;;3.50;;
75362;SDS011;64122;51.988;5.892;2023-04-24T07:00:19;8.45;;;4.22;;
75362;SDS011;64122;51.988;5.892;2023-04-24T07:02:49;6.72;;;3.30;;
75362;SDS011;64122;51.988;5.892;2023-04-24T07:05:22;7.82;;;3.05;;
75362;SDS011;64122;51.988;5.892;2023-04-24T07:07:51;5.78;;;2.53;;
75362;SDS011;64122;51.988;5.892;2023-04-24T07:10:20;8.43;;;3.60;;
75362;SDS011;64122;51.988;5.892;2023-04-24T07:12:50;6.47;;;3.03;;
75362;SDS011;64122;51.988;5.892;2023-04-24T07:15:19;4.97;;;2.25;;
75362;SDS011;64122;51.988;5.892;2023-04-24T07:17:49;6.15;;;2.75;;
75362;SDS011;64122;51.988;5.892;2023-04-24T07:20:21;6.88;;;2.30;;
75362;SDS011;64122;51.988;5.892;2023-04-24T07:22:50;4.85;;;2.10;;
75362;SDS011;64122;51.988;5.892;2023-04-24T07:25:20;5.18;;;2.20;;
75362;SDS011;64122;51.988;5.892;2023-04-24T07:27:49;4.63;;;2.25;;
75362;SDS011;64122;51.988;5.892;2023-04-24T07:30:18;5.07;;;2.10;;
75362;SDS011;64122;51.988;5.892;2023-04-24T07:32:47;6.60;;;1.70;;
75362;SDS011;64122;51.988;5.892;2023-04-24T07:35:16;5.13;;;1.75;;
75362;SDS011;64122;51.988;5.892;2023-04-24T07:37:49;5.65;;;1.30;;
75362;SDS011;64122;51.988;5.892;2023-04-24T07:40:18;3.35;;;1.35;;
75362;SDS011;64122;51.988;5.892;2023-04-24T07:42:47;6.18;;;1.52;;
75362;SDS011;64122;51.988;5.892;2023-04-24T07:45:16;5.45;;;2.22;;
75362;SDS011;64122;51.988;5.892;2023-04-24T07:47:46;7.10;;;3.28;;
75362;SDS011;64122;51.988;5.892;2023-04-24T07:50:15;5.30;;;2.72;;
75362;SDS011;64122;51.988;5.892;2023-04-24T07:52:44;4.35;;;1.85;;
75362;SDS011;64122;51.988;5.892;2023-04-24T07:55:16;6.35;;;2.75;;
75362;SDS011;64122;51.988;5.892;2023-04-24T07:57:45;6.95;;;3.50;;
75362;SDS011;64122;51.988;5.892;2023-04-24T08:00:15;5.95;;;2.97;;
75362;SDS011;64122;51.988;5.892;2023-04-24T08:02:45;8.48;;;3.17;;
75362;SDS011;64122;51.988;5.892;2023-04-24T08:05:14;9.43;;;3.67;;
75362;SDS011;64122;51.988;5.892;2023-04-24T08:07:45;7.90;;;3.70;;
75362;SDS011;64122;51.988;5.892;2023-04-24T08:10:18;9.00;;;4.50;;
75362;SDS011;64122;51.988;5.892;2023-04-24T08:12:47;9.45;;;4.57;;
75362;SDS011;64122;51.988;5.892;2023-04-24T08:15:17;10.48;;;4.80;;
75362;SDS011;64122;51.988;5.892;2023-04-24T08:17:46;7.93;;;3.95;;
75362;SDS011;64122;51.988;5.892;2023-04-24T08:20:16;10.05;;;4.97;;
75362;SDS011;64122;51.988;5.892;2023-04-24T08:22:45;7.60;;;4.78;;
75362;SDS011;64122;51.988;5.892;2023-04-24T08:25:17;8.05;;;4.85;;
75362;SDS011;64122;51.988;5.892;2023-04-24T08:27:48;9.43;;;4.20;;
75362;SDS011;64122;51.988;5.892;2023-04-24T08:30:17;11.23;;;5.13;;
75362;SDS011;64122;51.988;5.892;2023-04-24T08:32:47;11.63;;;5.13;;
75362;SDS011;64122;51.988;5.892;2023-04-24T08:35:16;10.20;;;4.88;;
75362;SDS011;64122;51.988;5.892;2023-04-24T08:37:46;11.15;;;5.00;;
75362;SDS011;64122;51.988;5.892;2023-04-24T08:40:18;12.30;;;5.38;;
75362;SDS011;64122;51.988;5.892;2023-04-24T08:42:51;11.27;;;5.10;;
75362;SDS011;64122;51.988;5.892;2023-04-24T08:45:24;13.68;;;5.15;;
75362;SDS011;64122;51.988;5.892;2023-04-24T08:47:53;11.07;;;5.22;;
75362;SDS011;64122;51.988;5.892;2023-04-24T08:50:23;10.18;;;5.30;;
75362;SDS011;64122;51.988;5.892;2023-04-24T08:52:52;13.90;;;5.35;;
75362;SDS011;64122;51.988;5.892;2023-04-24T08:55:25;10.43;;;4.68;;
75362;SDS011;64122;51.988;5.892;2023-04-24T08:57:54;12.82;;;5.53;;
75362;SDS011;64122;51.988;5.892;2023-04-24T09:00:24;9.98;;;4.60;;
75362;SDS011;64122;51.988;5.892;2023-04-24T09:02:54;9.85;;;4.32;;
75362;SDS011;64122;51.988;5.892;2023-04-24T09:05:24;9.13;;;3.50;;
75362;SDS011;64122;51.988;5.892;2023-04-24T09:07:56;9.35;;;3.38;;
75362;SDS011;64122;51.988;5.892;2023-04-24T09:10:28;11.88;;;4.00;;
75362;SDS011;64122;51.988;5.892;2023-04-24T09:12:58;8.50;;;3.20;;
75362;SDS011;64122;51.988;5.892;2023-04-24T09:15:29;9.20;;;2.88;;
75362;SDS011;64122;51.988;5.892;2023-04-24T09:17:58;9.32;;;3.15;;
75362;SDS011;64122;51.988;5.892;2023-04-24T09:20:28;11.93;;;3.10;;
75362;SDS011;64122;51.988;5.892;2023-04-24T09:22:57;11.23;;;2.88;;
75362;SDS011;64122;51.988;5.892;2023-04-24T09:25:33;9.32;;;2.90;;
75362;SDS011;64122;51.988;5.892;2023-04-24T09:28:04;10.98;;;2.75;;
75362;SDS011;64122;51.988;5.892;2023-04-24T09:30:34;10.60;;;1.92;;
75362;SDS011;64122;51.988;5.892;2023-04-24T09:33:10;11.07;;;2.60;;
75362;SDS011;64122;51.988;5.892;2023-04-24T09:35:40;7.57;;;2.40;;
75362;SDS011;64122;51.988;5.892;2023-04-24T09:38:11;8.23;;;2.28;;
75362;SDS011;64122;51.988;5.892;2023-04-24T09:40:43;10.93;;;2.95;;
75362;SDS011;64122;51.988;5.892;2023-04-24T09:43:12;13.02;;;2.70;;
75362;SDS011;64122;51.988;5.892;2023-04-24T09:45:41;12.30;;;2.17;;
75362;SDS011;64122;51.988;5.892;2023-04-24T09:48:11;8.25;;;2.20;;
75362;SDS011;64122;51.988;5.892;2023-04-24T09:50:40;11.93;;;2.40;;
75362;SDS011;64122;51.988;5.892;2023-04-24T09:53:14;17.70;;;2.78;;
75362;SDS011;64122;51.988;5.892;2023-04-24T09:55:47;6.55;;;1.95;;
75362;SDS011;64122;51.988;5.892;2023-04-24T09:58:16;11.07;;;2.88;;
75362;SDS011;64122;51.988;5.892;2023-04-24T10:00:45;9.55;;;2.22;;
75362;SDS011;64122;51.988;5.892;2023-04-24T10:03:14;6.13;;;2.10;;
75362;SDS011;64122;51.988;5.892;2023-04-24T10:05:46;10.65;;;2.47;;
75362;SDS011;64122;51.988;5.892;2023-04-24T10:08:16;10.57;;;2.47;;
75362;SDS011;64122;51.988;5.892;2023-04-24T10:10:47;11.45;;;2.30;;
75362;SDS011;64122;51.988;5.892;2023-04-24T10:13:17;12.90;;;2.75;;
75362;SDS011;64122;51.988;5.892;2023-04-24T10:15:46;8.13;;;2.13;;
75362;SDS011;64122;51.988;5.892;2023-04-24T10:18:16;10.35;;;2.60;;
75362;SDS011;64122;51.988;5.892;2023-04-24T10:20:46;11.00;;;2.13;;
75362;SDS011;64122;51.988;5.892;2023-04-24T10:23:16;10.50;;;2.47;;
75362;SDS011;64122;51.988;5.892;2023-04-24T10:25:48;13.45;;;2.45;;
75362;SDS011;64122;51.988;5.892;2023-04-24T10:28:19;7.15;;;1.95;;
75362;SDS011;64122;51.988;5.892;2023-04-24T10:30:50;9.10;;;2.40;;
75362;SDS011;64122;51.988;5.892;2023-04-24T10:33:23;10.82;;;2.08;;
75362;SDS011;64122;51.988;5.892;2023-04-24T10:35:53;7.00;;;1.88;;
75362;SDS011;64122;51.988;5.892;2023-04-24T10:38:24;11.32;;;3.08;;
75362;SDS011;64122;51.988;5.892;2023-04-24T10:40:59;7.72;;;2.13;;
75362;SDS011;64122;51.988;5.892;2023-04-24T10:43:41;8.68;;;2.20;;
75362;SDS011;64122;51.988;5.892;2023-04-24T10:46:16;8.95;;;2.10;;
75362;SDS011;64122;51.988;5.892;2023-04-24T10:48:52;7.28;;;2.53;;
75362;SDS011;64122;51.988;5.892;2023-04-24T10:51:22;9.48;;;1.75;;
75362;SDS011;64122;51.988;5.892;2023-04-24T10:53:53;5.93;;;1.60;;
75362;SDS011;64122;51.988;5.892;2023-04-24T10:56:28;6.43;;;2.03;;
75362;SDS011;64122;51.988;5.892;2023-04-24T10:58:57;8.70;;;2.47;;
75362;SDS011;64122;51.988;5.892;2023-04-24T11:01:28;8.93;;;1.60;;
75362;SDS011;64122;51.988;5.892;2023-04-24T11:03:59;6.22;;;2.00;;
75362;SDS011;64122;51.988;5.892;2023-04-24T11:06:29;8.73;;;1.67;;
75362;SDS011;64122;51.988;5.892;2023-04-24T11:09:02;8.27;;;2.53;;
75362;SDS011;64122;51.988;5.892;2023-04-24T11:11:36;9.45;;;1.85;;
75362;SDS011;64122;51.988;5.892;2023-04-24T11:14:09;6.63;;;1.70;;
75362;SDS011;64122;51.988;5.892;2023-04-24T11:16:39;7.30;;;1.58;;
75362;SDS011;64122;51.988;5.892;2023-04-24T11:19:20;7.82;;;1.52;;
75362;SDS011;64122;51.988;5.892;2023-04-24T11:21:56;7.15;;;1.45;;
75362;SDS011;64122;51.988;5.892;2023-04-24T11:24:28;3.38;;;0.95;;
75362;SDS011;64122;51.988;5.892;2023-04-24T11:27:14;6.32;;;1.25;;
75362;SDS011;64122;51.988;5.892;2023-04-24T11:29:46;6.00;;;1.40;;
75362;SDS011;64122;51.988;5.892;2023-04-24T11:32:26;3.78;;;1.10;;
75362;SDS011;64122;51.988;5.892;2023-04-24T11:37:26;4.13;;;1.00;;
75362;SDS011;64122;51.988;5.892;2023-04-24T11:39:56;4.55;;;1.00;;
75362;SDS011;64122;51.988;5.892;2023-04-24T11:42:29;6.30;;;1.20;;
75362;SDS011;64122;51.988;5.892;2023-04-24T11:45:06;5.28;;;0.95;;
75362;SDS011;64122;51.988;5.892;2023-04-24T11:47:37;4.28;;;0.98;;
75362;SDS011;64122;51.988;5.892;2023-04-24T11:50:08;4.53;;;0.85;;
75362;SDS011;64122;51.988;5.892;2023-04-24T11:52:42;3.53;;;0.88;;
75362;SDS011;64122;51.988;5.892;2023-04-24T11:55:23;6.10;;;0.98;;
75362;SDS011;64122;51.988;5.892;2023-04-24T11:57:58;4.75;;;0.82;;
75362;SDS011;64122;51.988;5.892;2023-04-24T12:00:28;2.50;;;0.65;;
75362;SDS011;64122;51.988;5.892;2023-04-24T12:03:03;4.32;;;0.70;;
75362;SDS011;64122;51.988;5.892;2023-04-24T12:05:34;5.18;;;1.60;;
75362;SDS011;64122;51.988;5.892;2023-04-24T12:08:04;3.90;;;1.00;;
75362;SDS011;64122;51.988;5.892;2023-04-24T12:10:34;6.72;;;1.08;;
75362;SDS011;64122;51.988;5.892;2023-04-24T12:13:08;2.65;;;0.73;;
75362;SDS011;64122;51.988;5.892;2023-04-24T12:15:39;2.63;;;0.73;;
75362;SDS011;64122;51.988;5.892;2023-04-24T12:18:11;9.93;;;1.55;;
75362;SDS011;64122;51.988;5.892;2023-04-24T12:20:42;4.32;;;1.00;;
75362;SDS011;64122;51.988;5.892;2023-04-24T12:23:11;4.10;;;1.08;;
75362;SDS011;64122;51.988;5.892;2023-04-24T12:25:41;3.25;;;1.02;;
75362;SDS011;64122;51.988;5.892;2023-04-24T12:28:12;5.40;;;1.00;;
75362;SDS011;64122;51.988;5.892;2023-04-24T12:30:43;3.05;;;0.80;;
75362;SDS011;64122;51.988;5.892;2023-04-24T12:33:16;6.03;;;0.90;;
75362;SDS011;64122;51.988;5.892;2023-04-24T12:35:47;6.15;;;1.00;;
75362;SDS011;64122;51.988;5.892;2023-04-24T12:38:21;5.03;;;0.82;;
75362;SDS011;64122;51.988;5.892;2023-04-24T12:41:01;27.90;;;13.75;;
75362;SDS011;64122;51.988;5.892;2023-04-24T12:43:34;2.15;;;0.73;;
75362;SDS011;64122;51.988;5.892;2023-04-24T12:46:04;4.40;;;0.90;;
75362;SDS011;64122;51.988;5.892;2023-04-24T12:48:33;2.85;;;0.80;;
75362;SDS011;64122;51.988;5.892;2023-04-24T12:51:02;13.77;;;6.45;;
75362;SDS011;64122;51.988;5.892;2023-04-24T12:53:32;4.45;;;0.70;;
75362;SDS011;64122;51.988;5.892;2023-04-24T12:56:01;4.20;;;0.90;;
75362;SDS011;64122;51.988;5.892;2023-04-24T12:58:31;5.97;;;0.90;;
75362;SDS011;64122;51.988;5.892;2023-04-24T13:01:02;2.90;;;0.80;;
75362;SDS011;64122;51.988;5.892;2023-04-24T13:03:32;3.33;;;0.80;;
75362;SDS011;64122;51.988;5.892;2023-04-24T13:06:01;6.53;;;1.02;;
75362;SDS011;64122;51.988;5.892;2023-04-24T13:08:30;6.07;;;1.25;;
75362;SDS011;64122;51.988;5.892;2023-04-24T13:10:59;4.53;;;0.90;;
75362;SDS011;64122;51.988;5.892;2023-04-24T13:13:29;3.88;;;0.82;;
75362;SDS011;64122;51.988;5.892;2023-04-24T13:16:00;4.55;;;1.05;;
75362;SDS011;64122;51.988;5.892;2023-04-24T13:18:33;4.22;;;0.82;;
75362;SDS011;64122;51.988;5.892;2023-04-24T13:21:02;3.30;;;0.80;;
75362;SDS011;64122;51.988;5.892;2023-04-24T13:23:31;8.15;;;1.50;;
75362;SDS011;64122;51.988;5.892;2023-04-24T13:26:01;4.85;;;1.00;;
75362;SDS011;64122;51.988;5.892;2023-04-24T13:28:30;6.18;;;1.65;;
75362;SDS011;64122;51.988;5.892;2023-04-24T13:31:02;5.80;;;1.48;;
75362;SDS011;64122;51.988;5.892;2023-04-24T13:33:32;6.90;;;1.73;;
75362;SDS011;64122;51.988;5.892;2023-04-24T13:36:01;8.23;;;1.33;;
75362;SDS011;64122;51.988;5.892;2023-04-24T13:38:30;9.57;;;1.40;;
75362;SDS011;64122;51.988;5.892;2023-04-24T13:40:59;7.15;;;1.40;;
75362;SDS011;64122;51.988;5.892;2023-04-24T13:43:29;7.35;;;1.60;;
75362;SDS011;64122;51.988;5.892;2023-04-24T13:45:58;5.95;;;1.20;;
75362;SDS011;64122;51.988;5.892;2023-04-24T13:48:31;7.57;;;1.35;;
75362;SDS011;64122;51.988;5.892;2023-04-24T13:51:00;8.23;;;1.70;;
75362;SDS011;64122;51.988;5.892;2023-04-24T13:53:30;9.25;;;1.45;;
75362;SDS011;64122;51.988;5.892;2023-04-24T13:56:01;5.90;;;1.10;;
75362;SDS011;64122;51.988;5.892;2023-04-24T13:58:31;8.93;;;1.73;;
75362;SDS011;64122;51.988;5.892;2023-04-24T14:01:01;5.32;;;1.35;;
75362;SDS011;64122;51.988;5.892;2023-04-24T14:03:34;16.08;;;1.80;;
75362;SDS011;64122;51.988;5.892;2023-04-24T14:06:03;7.57;;;1.50;;
75362;SDS011;64122;51.988;5.892;2023-04-24T14:08:32;6.97;;;1.20;;
75362;SDS011;64122;51.988;5.892;2023-04-24T14:11:01;7.75;;;1.50;;
75362;SDS011;64122;51.988;5.892;2023-04-24T14:13:31;7.38;;;1.50;;
75362;SDS011;64122;51.988;5.892;2023-04-24T14:16:00;7.72;;;1.70;;
75362;SDS011;64122;51.988;5.892;2023-04-24T14:18:30;16.05;;;2.47;;
75362;SDS011;64122;51.988;5.892;2023-04-24T14:21:02;6.25;;;1.52;;
75362;SDS011;64122;51.988;5.892;2023-04-24T14:23:31;7.47;;;1.80;;
75362;SDS011;64122;51.988;5.892;2023-04-24T14:26:01;10.30;;;1.95;;
75362;SDS011;64122;51.988;5.892;2023-04-24T14:28:32;9.85;;;1.80;;
75362;SDS011;64122;51.988;5.892;2023-04-24T14:31:01;7.20;;;1.50;;
75362;SDS011;64122;51.988;5.892;2023-04-24T14:33:30;8.25;;;1.98;;
75362;SDS011;64122;51.988;5.892;2023-04-24T14:36:02;8.05;;;1.90;;
75362;SDS011;64122;51.988;5.892;2023-04-24T14:38:32;8.70;;;1.67;;
75362;SDS011;64122;51.988;5.892;2023-04-24T14:41:02;7.75;;;1.80;;
75362;SDS011;64122;51.988;5.892;2023-04-24T14:43:35;7.50;;;1.80;;
75362;SDS011;64122;51.988;5.892;2023-04-24T14:46:04;8.65;;;2.00;;
75362;SDS011;64122;51.988;5.892;2023-04-24T14:48:33;9.07;;;2.55;;
75362;SDS011;64122;51.988;5.892;2023-04-24T14:51:05;8.80;;;2.20;;
75362;SDS011;64122;51.988;5.892;2023-04-24T14:53:34;7.47;;;1.50;;
75362;SDS011;64122;51.988;5.892;2023-04-24T14:56:05;7.15;;;1.67;;
75362;SDS011;64122;51.988;5.892;2023-04-24T14:58:34;5.63;;;1.30;;
75362;SDS011;64122;51.988;5.892;2023-04-24T15:01:04;9.40;;;1.40;;
75362;SDS011;64122;51.988;5.892;2023-04-24T15:03:33;11.02;;;2.00;;
75362;SDS011;64122;51.988;5.892;2023-04-24T15:06:05;9.35;;;2.10;;
75362;SDS011;64122;51.988;5.892;2023-04-24T15:08:34;9.20;;;1.70;;